createdAt,value
2018-04-17T00:01:11.113Z,2.40
2018-04-17T00:03:39.166Z,2.20
2018-04-17T00:06:07.237Z,2.17
2018-04-17T00:08:35.279Z,1.97
2018-04-17T00:11:03.341Z,2.50
2018-04-17T00:13:31.374Z,2.67
2018-04-17T00:15:59.426Z,2.27
2018-04-17T00:18:27.493Z,2.43
2018-04-17T00:20:55.545Z,2.73
2018-04-17T00:23:24.353Z,2.40
2018-04-17T00:25:52.409Z,2.47
2018-04-17T00:28:22.024Z,2.40
2018-04-17T00:30:50.043Z,2.37
2018-04-17T00:33:18.093Z,2.70
2018-04-17T00:35:46.143Z,2.27
2018-04-17T00:38:14.178Z,2.67
2018-04-17T00:40:43.009Z,2.50
2018-04-17T00:43:11.064Z,2.70
2018-04-17T00:45:39.114Z,2.10
2018-04-17T00:48:07.937Z,2.50
2018-04-17T00:50:35.988Z,2.10
2018-04-17T00:53:16.568Z,2.77
2018-04-17T00:55:44.605Z,2.37
2018-04-17T00:58:12.663Z,2.50
2018-04-17T01:00:40.711Z,2.57
2018-04-17T01:03:08.771Z,2.60
2018-04-17T01:05:36.824Z,2.50
2018-04-17T01:08:04.870Z,2.53
2018-04-17T01:10:32.914Z,2.77
2018-04-17T01:13:00.978Z,2.63
2018-04-17T01:15:29.023Z,2.47
2018-04-17T01:17:57.102Z,2.87
2018-04-17T01:20:25.182Z,2.47
2018-04-17T01:22:53.224Z,2.57
2018-04-17T01:25:21.271Z,2.30
2018-04-17T01:27:50.094Z,2.00
2018-04-17T01:30:18.150Z,2.63
2018-04-17T01:32:46.208Z,2.37
2018-04-17T01:35:15.015Z,2.37
2018-04-17T01:37:43.843Z,2.23
2018-04-17T01:40:11.882Z,2.30
2018-04-17T01:42:39.937Z,2.20
2018-04-17T01:45:07.998Z,2.30
2018-04-17T01:47:36.042Z,2.83
2018-04-17T01:50:04.860Z,2.30
2018-04-17T01:52:33.029Z,2.27
2018-04-17T01:55:01.072Z,2.20
2018-04-17T01:57:29.136Z,2.33
2018-04-17T02:00:03.929Z,2.40
2018-04-17T02:02:37.257Z,2.33
2018-04-17T02:05:05.411Z,3.07
2018-04-17T02:07:33.466Z,2.50
2018-04-17T02:10:01.505Z,2.47
2018-04-17T02:12:29.571Z,2.70
2018-04-17T02:14:57.614Z,2.67
2018-04-17T02:17:25.661Z,2.43
2018-04-17T02:19:53.710Z,2.70
2018-04-17T02:22:21.784Z,2.50
2018-04-17T02:24:50.604Z,2.53
2018-04-17T02:27:18.653Z,2.83
2018-04-17T02:29:46.711Z,3.27
2018-04-17T02:32:14.857Z,3.23
2018-04-17T02:34:43.661Z,3.20
2018-04-17T02:37:11.705Z,3.10
2018-04-17T02:39:40.536Z,3.40
2018-04-17T02:42:08.589Z,3.30
2018-04-17T02:44:36.627Z,3.33
2018-04-17T02:47:04.661Z,3.37
2018-04-17T02:49:32.744Z,2.80
2018-04-17T02:52:00.792Z,3.70
2018-04-17T02:54:28.845Z,3.00
2018-04-17T02:56:56.869Z,3.10
2018-04-17T02:59:24.957Z,2.93
2018-04-17T03:01:58.253Z,2.80
2018-04-17T03:04:27.061Z,2.97
2018-04-17T03:06:55.217Z,2.57
2018-04-17T03:09:23.237Z,2.97
2018-04-17T03:11:51.331Z,3.07
2018-04-17T03:14:19.384Z,3.23
2018-04-17T03:16:47.431Z,3.13
2018-04-17T03:19:15.487Z,2.97
2018-04-17T03:21:43.683Z,3.10
2018-04-17T03:24:11.737Z,2.87
2018-04-17T03:26:39.774Z,3.50
2018-04-17T03:29:07.820Z,3.30
2018-04-17T03:31:35.853Z,3.10
2018-04-17T03:34:03.923Z,3.10
2018-04-17T03:36:31.957Z,3.37
2018-04-17T03:39:00.029Z,2.77
2018-04-17T03:41:28.830Z,3.23
2018-04-17T03:43:57.727Z,3.10
2018-04-17T03:46:25.764Z,3.40
2018-04-17T03:48:53.824Z,2.90
2018-04-17T03:51:21.899Z,3.00
2018-04-17T03:53:49.955Z,3.57
2018-04-17T03:56:19.298Z,3.23
2018-04-17T03:58:48.115Z,3.00
2018-04-17T04:01:16.151Z,3.63
2018-04-17T04:03:44.979Z,3.20
2018-04-17T04:06:13.033Z,3.20
2018-04-17T04:08:41.075Z,3.70
2018-04-17T04:11:09.122Z,2.87
2018-04-17T04:13:37.251Z,3.00
2018-04-17T04:16:06.020Z,3.30
2018-04-17T04:18:46.566Z,3.70
2018-04-17T04:21:27.901Z,3.30
2018-04-17T04:24:21.793Z,3.73
2018-04-17T04:26:49.832Z,3.27
2018-04-17T04:29:17.898Z,3.87
2018-04-17T04:31:45.944Z,4.67
2018-04-17T04:34:14.011Z,3.80
2018-04-17T04:36:42.825Z,3.53
2018-04-17T04:39:10.880Z,3.30
2018-04-17T04:41:39.692Z,3.83
2018-04-17T04:44:07.758Z,3.73
2018-04-17T04:46:35.853Z,3.60
2018-04-17T04:49:03.907Z,3.63
2018-04-17T04:51:31.966Z,3.63
2018-04-17T04:54:00.038Z,3.90
2018-04-17T04:56:28.171Z,3.60
2018-04-17T04:58:56.219Z,3.60
2018-04-17T05:01:24.412Z,3.50
2018-04-17T05:03:52.449Z,3.47
2018-04-17T05:06:26.834Z,3.60
2018-04-17T05:09:08.655Z,3.53
2018-04-17T05:11:38.783Z,3.53
2018-04-17T05:14:06.831Z,4.23
2018-04-17T05:16:34.874Z,3.60
2018-04-17T05:19:02.906Z,4.07
2018-04-17T05:21:30.955Z,4.00
2018-04-17T05:23:59.122Z,3.87
2018-04-17T05:26:27.166Z,5.27
2018-04-17T05:28:55.981Z,5.20
2018-04-17T05:31:24.266Z,5.77
2018-04-17T05:33:53.918Z,5.20
2018-04-17T05:36:23.055Z,5.00
2018-04-17T05:38:54.294Z,5.00
2018-04-17T05:47:15.812Z,6.00
2018-04-17T05:49:45.567Z,5.20
2018-04-17T05:52:13.616Z,5.30
2018-04-17T05:54:42.476Z,5.03
2018-04-17T05:57:10.533Z,5.13
2018-04-17T05:59:38.578Z,4.90
2018-04-17T06:02:06.635Z,5.20
2018-04-17T06:04:34.708Z,5.67
2018-04-17T06:07:02.774Z,5.17
2018-04-17T06:09:30.809Z,8.90
2018-04-17T06:11:58.885Z,6.50
2018-04-17T06:14:26.937Z,5.67
2018-04-17T06:16:55.076Z,5.33
2018-04-17T06:19:23.135Z,5.23
2018-04-17T06:21:51.207Z,5.87
2018-04-17T06:24:19.258Z,5.93
2018-04-17T06:26:47.343Z,5.73
2018-04-17T06:29:15.400Z,5.97
2018-04-17T06:31:43.432Z,5.20
2018-04-17T06:34:13.519Z,4.63
2018-04-17T06:36:41.547Z,5.10
2018-04-17T06:39:10.372Z,5.07
2018-04-17T06:41:39.359Z,5.10
2018-04-17T06:44:07.424Z,4.50
2018-04-17T06:46:35.476Z,5.40
2018-04-17T06:49:04.305Z,4.77
2018-04-17T06:51:32.345Z,5.30
2018-04-17T06:54:01.303Z,4.77
2018-04-17T06:56:29.350Z,5.13
2018-04-17T06:59:01.503Z,5.30
2018-04-17T07:01:29.555Z,4.90
2018-04-17T07:03:57.620Z,4.83
2018-04-17T07:06:25.664Z,5.07
2018-04-17T07:08:53.778Z,5.40
2018-04-17T07:11:21.835Z,4.63
2018-04-17T07:13:49.906Z,4.50
2018-04-17T07:16:17.958Z,5.07
2018-04-17T07:18:46.895Z,5.03
2018-04-17T07:21:14.959Z,4.33
2018-04-17T07:23:43.043Z,4.47
2018-04-17T07:26:11.049Z,4.10
2018-04-17T07:28:39.100Z,4.40
2018-04-17T07:31:07.175Z,4.67
2018-04-17T07:33:35.264Z,4.33
2018-04-17T07:36:03.296Z,3.93
2018-04-17T07:38:31.355Z,4.53
2018-04-17T07:40:59.432Z,4.37
2018-04-17T07:43:27.474Z,4.80
2018-04-17T07:45:55.531Z,4.93
2018-04-17T07:48:35.301Z,4.80
2018-04-17T07:51:03.367Z,4.50
2018-04-17T07:53:31.462Z,4.30
2018-04-17T07:55:59.508Z,4.33
2018-04-17T07:58:27.568Z,4.10
2018-04-17T08:00:55.619Z,3.77
2018-04-17T08:03:23.662Z,3.97
2018-04-17T08:05:51.728Z,4.20
2018-04-17T08:08:19.822Z,4.10
2018-04-17T08:10:47.833Z,3.90
2018-04-17T08:13:15.876Z,3.87
2018-04-17T08:15:44.719Z,3.70
2018-04-17T08:18:12.771Z,4.00
2018-04-17T08:20:45.109Z,4.17
2018-04-17T08:23:13.166Z,3.83
2018-04-17T08:25:41.218Z,3.87
2018-04-17T08:28:09.513Z,4.20
2018-04-17T08:30:38.350Z,3.97
2018-04-17T08:33:06.407Z,4.03
2018-04-17T08:35:34.464Z,3.67
2018-04-17T08:38:02.507Z,3.73
2018-04-17T08:40:30.566Z,4.20
2018-04-17T08:42:58.605Z,4.83
2018-04-17T08:45:26.686Z,4.30
2018-04-17T08:47:54.716Z,3.70
2018-04-17T08:50:22.780Z,3.80
2018-04-17T08:52:51.589Z,4.23
2018-04-17T08:55:19.663Z,3.80
2018-04-17T08:57:47.705Z,3.03
2018-04-17T09:00:16.519Z,4.37
2018-04-17T09:02:44.570Z,3.90
2018-04-17T09:05:13.744Z,4.47
2018-04-17T09:07:41.748Z,3.57
2018-04-17T09:10:09.781Z,3.73
2018-04-17T09:12:37.845Z,3.70
2018-04-17T09:15:05.889Z,3.37
2018-04-17T09:17:33.946Z,3.13
2018-04-17T09:20:02.007Z,3.97
2018-04-17T09:22:30.062Z,4.07
2018-04-17T09:24:58.883Z,4.20
2018-04-17T09:27:26.935Z,3.37
2018-04-17T09:29:54.977Z,3.73
2018-04-17T09:32:23.804Z,4.20
2018-04-17T09:34:52.605Z,3.43
2018-04-17T09:37:20.651Z,3.80
2018-04-17T09:39:48.686Z,4.10
2018-04-17T09:42:16.748Z,3.80
2018-04-17T09:44:44.788Z,3.47
2018-04-17T09:47:12.857Z,2.93
2018-04-17T09:49:40.909Z,2.80
2018-04-17T09:52:08.979Z,2.93
2018-04-17T09:54:37.021Z,2.90
2018-04-17T09:57:05.844Z,2.78
2018-04-17T09:59:33.895Z,2.62
2018-04-17T10:02:01.955Z,2.83
2018-04-17T10:04:30.013Z,2.80
2018-04-17T10:06:59.701Z,2.17
2018-04-17T10:09:27.765Z,2.67
2018-04-17T10:11:55.823Z,2.50
2018-04-17T10:14:23.890Z,2.75
2018-04-17T10:16:51.930Z,2.75
2018-04-17T10:19:19.991Z,3.00
2018-04-17T10:21:48.801Z,3.10
2018-04-17T10:24:16.868Z,2.53
2018-04-17T10:26:44.910Z,2.62
2018-04-17T10:29:12.970Z,2.53
2018-04-17T10:31:41.031Z,2.47
2018-04-17T10:34:09.085Z,2.58
2018-04-17T10:36:37.139Z,2.55
2018-04-17T10:39:05.970Z,2.60
2018-04-17T10:41:34.007Z,2.80
2018-04-17T10:44:02.929Z,2.03
2018-04-17T10:46:31.020Z,2.50
2018-04-17T10:48:59.117Z,2.47
2018-04-17T10:51:27.134Z,2.40
2018-04-17T10:53:55.203Z,2.33
2018-04-17T10:56:23.237Z,2.40
2018-04-17T10:58:51.286Z,2.40
2018-04-17T11:01:19.334Z,2.30
2018-04-17T11:03:47.387Z,1.90
2018-04-17T11:06:15.435Z,2.30
2018-04-17T11:08:43.495Z,2.60
2018-04-17T11:11:11.533Z,2.20
2018-04-17T11:13:39.582Z,2.20
2018-04-17T11:16:07.641Z,2.37
2018-04-17T11:18:35.696Z,1.90
2018-04-17T11:21:03.733Z,2.10
2018-04-17T11:23:31.785Z,2.20
2018-04-17T11:26:00.598Z,1.90
2018-04-17T11:28:28.683Z,2.27
2018-04-17T11:30:56.733Z,2.50
2018-04-17T11:33:24.782Z,2.30
2018-04-17T11:35:53.617Z,2.00
2018-04-17T11:38:21.687Z,2.10
2018-04-17T11:40:49.734Z,1.93
2018-04-17T11:43:17.773Z,2.40
2018-04-17T11:45:46.607Z,1.73
2018-04-17T11:48:14.662Z,2.00
2018-04-17T11:50:42.723Z,2.40
2018-04-17T11:53:11.489Z,2.70
2018-04-17T11:55:41.425Z,2.40
2018-04-17T11:58:10.235Z,2.30
2018-04-17T12:00:38.296Z,2.30
2018-04-17T12:03:06.343Z,2.17
2018-04-17T12:05:34.403Z,1.97
2018-04-17T12:08:03.042Z,2.17
2018-04-17T12:10:31.119Z,1.93
2018-04-17T12:12:59.161Z,1.93
2018-04-17T12:15:27.208Z,1.80
2018-04-17T12:17:55.259Z,1.80
2018-04-17T12:20:23.328Z,1.83
2018-04-17T12:22:51.368Z,1.80
2018-04-17T12:25:19.442Z,1.80
2018-04-17T12:27:47.491Z,2.20
2018-04-17T12:30:15.542Z,2.13
2018-04-17T12:32:44.355Z,2.00
2018-04-17T12:35:12.483Z,2.10
2018-04-17T12:37:40.543Z,2.50
2018-04-17T12:40:08.589Z,2.10
2018-04-17T12:42:36.627Z,2.20
2018-04-17T12:45:04.680Z,2.17
2018-04-17T12:47:32.762Z,1.80
2018-04-17T12:50:00.789Z,2.60
2018-04-17T12:52:28.984Z,2.30
2018-04-17T12:54:57.796Z,2.27
2018-04-17T12:57:25.871Z,2.10
2018-04-17T12:59:53.920Z,1.97
2018-04-17T13:02:22.733Z,2.10
2018-04-17T13:04:50.818Z,2.07
2018-04-17T13:07:18.872Z,1.80
2018-04-17T13:09:46.922Z,2.10
2018-04-17T13:12:15.858Z,2.00
2018-04-17T13:14:43.915Z,1.80
2018-04-17T13:17:12.033Z,1.60
2018-04-17T13:19:40.098Z,1.70
2018-04-17T13:22:08.169Z,2.13
2018-04-17T13:24:36.212Z,2.07
2018-04-17T13:27:04.276Z,1.50
2018-04-17T13:29:32.328Z,2.13
2018-04-17T13:32:00.527Z,1.80
2018-04-17T13:34:28.582Z,1.77
2018-04-17T13:36:56.637Z,1.57
2018-04-17T13:39:24.688Z,1.70
2018-04-17T13:41:52.743Z,1.57
2018-04-17T13:44:20.800Z,1.90
2018-04-17T13:46:48.872Z,1.80
2018-04-17T13:49:16.915Z,1.80
2018-04-17T13:51:44.984Z,1.90
2018-04-17T13:54:13.066Z,1.87
2018-04-17T13:56:41.097Z,1.90
2018-04-17T13:59:09.922Z,1.70
2018-04-17T14:01:37.974Z,1.70
2018-04-17T14:04:06.027Z,1.83
2018-04-17T14:06:34.851Z,1.90
2018-04-17T14:09:02.903Z,1.53
2018-04-17T14:11:30.954Z,1.67
2018-04-17T14:13:59.007Z,2.07
2018-04-17T14:16:27.070Z,2.10
2018-04-17T14:18:55.135Z,2.00
2018-04-17T14:21:23.201Z,2.50
2018-04-17T14:23:51.265Z,1.97
2018-04-17T14:26:19.328Z,2.00
2018-04-17T14:28:47.363Z,3.30
2018-04-17T14:31:15.418Z,2.33
2018-04-17T14:33:44.235Z,2.23
2018-04-17T14:36:13.050Z,1.87
2018-04-17T14:38:41.107Z,2.43
2018-04-17T14:41:09.155Z,2.10
2018-04-17T14:43:38.019Z,2.30
2018-04-17T14:46:06.667Z,1.70
2018-04-17T14:48:34.720Z,1.67
2018-04-17T14:51:02.762Z,1.90
2018-04-17T14:53:31.587Z,2.10
2018-04-17T14:55:59.634Z,1.90
2018-04-17T14:58:27.787Z,2.00
2018-04-17T15:00:56.605Z,2.07
2018-04-17T15:03:24.679Z,2.50
2018-04-17T15:05:52.705Z,2.40
2018-04-17T15:08:21.531Z,2.10
2018-04-17T15:10:49.598Z,2.27
2018-04-17T15:13:17.656Z,1.80
2018-04-17T15:15:46.465Z,1.97
2018-04-17T15:18:14.636Z,2.20
2018-04-17T15:20:42.686Z,1.63
2018-04-17T15:23:12.682Z,1.73
2018-04-17T15:25:40.771Z,1.77
2018-04-17T15:28:09.601Z,2.00
2018-04-17T15:30:37.698Z,1.77
2018-04-17T15:33:05.773Z,1.80
2018-04-17T15:35:33.828Z,1.80
2018-04-17T15:38:01.889Z,1.67
2018-04-17T15:40:30.036Z,1.77
2018-04-17T15:42:58.109Z,1.87
2018-04-17T15:45:26.179Z,1.83
2018-04-17T15:47:54.218Z,1.70
2018-04-17T15:50:22.269Z,1.77
2018-04-17T15:52:50.364Z,1.83
2018-04-17T15:55:18.442Z,1.70
2018-04-17T15:57:47.258Z,1.67
2018-04-17T16:00:15.390Z,1.93
2018-04-17T16:02:43.443Z,1.70
2018-04-17T16:05:11.512Z,1.60
2018-04-17T16:07:39.573Z,1.60
2018-04-17T16:13:03.760Z,2.00
2018-04-17T16:15:31.833Z,2.20
2018-04-17T16:17:59.889Z,2.10
2018-04-17T16:20:28.007Z,1.73
2018-04-17T16:22:56.065Z,2.40
2018-04-17T16:25:24.136Z,1.73
2018-04-17T16:27:52.195Z,1.70
2018-04-17T16:30:20.255Z,2.20
2018-04-17T16:32:51.321Z,2.00
2018-04-17T16:35:19.390Z,1.97
2018-04-17T16:37:47.479Z,1.83
2018-04-17T16:40:15.552Z,1.70
2018-04-17T16:42:43.604Z,1.80
2018-04-17T16:45:11.679Z,1.60
2018-04-17T16:47:39.751Z,1.73
2018-04-17T16:50:07.817Z,2.03
2018-04-17T16:52:35.888Z,1.70
2018-04-17T16:55:03.962Z,2.50
2018-04-17T16:57:32.017Z,1.70
2018-04-17T17:00:00.112Z,1.90
2018-04-17T17:02:28.147Z,1.80
2018-04-17T17:04:56.200Z,2.10
2018-04-17T17:07:24.365Z,1.73
2018-04-17T17:09:52.440Z,1.97
2018-04-17T17:12:20.485Z,2.07
2018-04-17T17:14:49.318Z,2.20
2018-04-17T17:17:17.403Z,2.30
2018-04-17T17:19:45.471Z,2.43
2018-04-17T17:22:13.527Z,2.20
2018-04-17T17:24:41.602Z,2.80
2018-04-17T17:27:09.718Z,2.80
2018-04-17T17:29:37.728Z,2.47
2018-04-17T17:32:05.793Z,2.30
2018-04-17T17:34:33.853Z,2.67
2018-04-17T17:37:01.955Z,2.27
2018-04-17T17:39:30.008Z,2.10
2018-04-17T17:41:58.283Z,1.90
2018-04-17T17:44:26.335Z,1.83
2018-04-17T17:46:55.174Z,1.73
2018-04-17T17:49:23.241Z,2.00
2018-04-17T17:51:51.311Z,1.97
2018-04-17T17:54:19.382Z,2.20
2018-04-17T17:56:47.451Z,2.23
2018-04-17T17:59:15.497Z,2.03
2018-04-17T18:01:43.695Z,2.50
2018-04-17T18:04:11.758Z,2.40
2018-04-17T18:06:39.801Z,2.57
2018-04-17T18:09:07.870Z,2.47
2018-04-17T18:11:35.921Z,2.30
2018-04-17T18:14:04.746Z,1.80
2018-04-17T18:16:32.803Z,2.03
2018-04-17T18:19:01.625Z,3.17
2018-04-17T18:21:29.669Z,2.73
2018-04-17T18:23:57.742Z,3.00
2018-04-17T18:26:25.803Z,3.03
2018-04-17T18:28:54.642Z,3.30
2018-04-17T18:31:22.760Z,3.10
2018-04-17T18:33:50.898Z,2.70
2018-04-17T18:36:19.033Z,2.70
2018-04-17T18:38:47.093Z,2.67
2018-04-17T18:41:15.175Z,2.70
2018-04-17T18:43:43.248Z,2.30
2018-04-17T18:46:11.748Z,2.33
2018-04-17T18:48:39.798Z,2.70
2018-04-17T18:51:07.857Z,2.40
2018-04-17T18:53:35.926Z,3.33
2018-04-17T18:56:03.976Z,2.80
2018-04-17T18:58:32.030Z,2.87
2018-04-17T19:01:01.468Z,2.93
2018-04-17T19:03:29.536Z,2.90
2018-04-17T19:05:57.719Z,3.10
2018-04-17T19:08:25.733Z,2.67
2018-04-17T19:10:53.813Z,2.47
2018-04-17T19:13:21.870Z,2.50
2018-04-17T19:15:49.961Z,2.10
2018-04-17T19:18:18.011Z,3.23
2018-04-17T19:20:46.083Z,3.00
2018-04-17T19:23:14.149Z,2.67
2018-04-17T19:25:42.206Z,3.03
2018-04-17T19:28:10.276Z,2.60
2018-04-17T19:30:38.336Z,2.63
2018-04-17T19:33:06.411Z,2.30
2018-04-17T19:35:34.475Z,2.70
2018-04-17T19:38:02.550Z,3.53
2018-04-17T19:40:30.614Z,2.80
2018-04-17T19:42:58.680Z,2.33
2018-04-17T19:45:26.757Z,3.27
2018-04-17T19:47:54.827Z,2.80
2018-04-17T19:50:22.911Z,2.60
2018-04-17T19:52:54.431Z,2.60
2018-04-17T19:55:22.498Z,2.80
2018-04-17T19:57:51.333Z,2.80
2018-04-17T20:00:19.395Z,2.73
2018-04-17T20:02:47.458Z,2.90
2018-04-17T20:05:15.525Z,5.73
2018-04-17T20:07:43.603Z,3.80
2018-04-17T20:10:11.710Z,4.17
2018-04-17T20:12:39.767Z,3.80
2018-04-17T20:15:07.833Z,3.70
2018-04-17T20:17:35.882Z,4.60
2018-04-17T20:20:03.944Z,4.07
2018-04-17T20:22:32.019Z,4.17
2018-04-17T20:25:00.075Z,2.87
2018-04-17T20:27:28.137Z,3.50
2018-04-17T20:29:56.185Z,5.40
2018-04-17T20:32:24.241Z,3.93
2018-04-17T20:34:52.384Z,5.70
2018-04-17T20:37:21.196Z,4.40
2018-04-17T20:39:49.249Z,4.07
2018-04-17T20:42:17.384Z,4.50
2018-04-17T20:44:45.382Z,4.30
2018-04-17T20:47:14.213Z,5.33
2018-04-17T20:49:42.257Z,5.70
2018-04-17T20:52:10.322Z,3.70
2018-04-17T20:54:38.477Z,3.70
2018-04-17T20:57:06.545Z,3.13
2018-04-17T20:59:34.611Z,3.53
2018-04-17T21:02:02.633Z,4.10
2018-04-17T21:04:32.697Z,16.27
2018-04-17T21:07:00.744Z,12.37
2018-04-17T21:09:28.809Z,9.90
2018-04-17T21:11:56.866Z,5.13
2018-04-17T21:14:24.939Z,4.50
2018-04-17T21:16:53.010Z,4.50
2018-04-17T21:19:21.209Z,4.07
2018-04-17T21:21:50.042Z,4.83
2018-04-17T21:24:18.146Z,4.03
2018-04-17T21:26:46.216Z,4.70
2018-04-17T21:29:14.248Z,4.50
2018-04-17T21:31:42.311Z,5.23
2018-04-17T21:34:10.355Z,4.83
2018-04-17T21:36:38.424Z,4.53
2018-04-17T21:39:07.233Z,5.00
2018-04-17T21:41:35.315Z,4.40
2018-04-17T21:44:03.381Z,5.10
2018-04-17T21:46:31.445Z,4.17
2018-04-17T21:48:59.550Z,4.23
2018-04-17T21:51:27.606Z,4.67
2018-04-17T21:53:55.665Z,5.00
2018-04-17T21:56:23.882Z,7.10
2018-04-17T21:58:52.075Z,6.90
2018-04-17T22:01:25.942Z,5.13
2018-04-17T22:03:54.984Z,4.60
2018-04-17T22:06:23.030Z,6.57
2018-04-17T22:08:51.103Z,6.40
2018-04-17T22:11:19.151Z,5.93
2018-04-17T22:13:47.214Z,5.63
2018-04-17T22:16:15.282Z,5.07
2018-04-17T22:18:43.385Z,5.50
2018-04-17T22:21:11.435Z,4.73
2018-04-17T22:23:39.492Z,4.90
2018-04-17T22:26:07.545Z,5.10
2018-04-17T22:28:35.691Z,5.30
2018-04-17T22:31:04.533Z,4.73
2018-04-17T22:33:32.586Z,4.63
2018-04-17T22:36:00.721Z,4.93
2018-04-17T22:38:29.555Z,5.17
2018-04-17T22:40:57.755Z,5.30
2018-04-17T22:43:25.829Z,5.13
2018-04-17T22:45:53.956Z,4.60
2018-04-17T22:48:22.028Z,4.50
2018-04-17T22:50:50.145Z,5.70
2018-04-17T22:53:18.309Z,4.67
2018-04-17T22:55:46.553Z,4.80
2018-04-17T22:58:14.628Z,5.03
2018-04-17T23:00:42.800Z,4.43
2018-04-17T23:03:11.442Z,4.83
2018-04-17T23:05:39.563Z,4.53
2018-04-17T23:08:07.722Z,5.10
2018-04-17T23:10:35.847Z,4.77
2018-04-17T23:13:03.921Z,5.20
2018-04-17T23:15:31.987Z,5.60
2018-04-17T23:18:00.304Z,4.97
2018-04-17T23:20:28.378Z,5.77
2018-04-17T23:22:56.441Z,5.87
2018-04-17T23:25:24.479Z,5.67
2018-04-17T23:27:52.541Z,5.93
2018-04-17T23:30:20.602Z,6.13
2018-04-17T23:32:48.649Z,6.70
2018-04-17T23:35:16.726Z,6.60
2018-04-17T23:37:45.553Z,7.07
2018-04-17T23:40:13.613Z,6.90
2018-04-17T23:42:41.709Z,7.60
2018-04-17T23:45:10.541Z,6.77
2018-04-17T23:47:38.581Z,6.87
2018-04-17T23:50:07.405Z,8.10
2018-04-17T23:52:35.449Z,7.90
2018-04-17T23:55:03.498Z,8.83
2018-04-17T23:57:32.304Z,8.00
